Time;durP1;ratioP1;P1;durP2;ratioP2;P2;SDS_P1;SDS_P2;PMS_P1;PMS_P2;Temp;Humidity;BMP_temperature;BMP_pressure;BME280_temperature;BME280_humidity;BME280_pressure;Samples;Min_cycle;Max_cycle;Signal;HPM_P1;HPM_P2
2022/06/27 00:01:29;;;;;;;9.27;8.15;;;;;;;;;;4994712;28;20046;-84
2022/06/27 00:03:56;;;;;;;9.38;8.45;;;;;;;;;;4994149;28;20302;-84
2022/06/27 00:06:22;;;;;;;9.75;8.65;;;;;;;;;;4993162;28;20056;-84
2022/06/27 00:08:48;;;;;;;8.93;8.02;;;;;;;;;;4994285;28;20046;-83
2022/06/27 00:11:15;;;;;;;9.60;8.70;;;;;;;;;;4992539;28;20061;-84
2022/06/27 00:13:41;;;;;;;10.32;8.90;;;;;;;;;;4993849;28;20045;-84
2022/06/27 00:16:07;;;;;;;10.50;8.57;;;;;;;;;;4993921;28;20532;-84
2022/06/27 00:18:33;;;;;;;10.32;8.07;;;;;;;;;;5011707;28;20399;-83
2022/06/27 00:20:59;;;;;;;8.77;8.07;;;;;;;;;;5010356;28;20139;-84
2022/06/27 00:23:25;;;;;;;9.45;8.55;;;;;;;;;;5011304;28;20495;-84
2022/06/27 00:25:51;;;;;;;10.57;9.55;;;;;;;;;;4993806;28;20610;-84
2022/06/27 00:28:18;;;;;;;10.68;9.63;;;;;;;;;;5010076;28;20061;-84
2022/06/27 00:30:44;;;;;;;9.98;8.98;;;;;;;;;;5011617;28;20160;-84
2022/06/27 00:33:10;;;;;;;10.85;9.85;;;;;;;;;;5002295;28;20064;-84
2022/06/27 00:35:36;;;;;;;10.60;9.60;;;;;;;;;;4991937;28;20410;-84
2022/06/27 00:38:02;;;;;;;11.82;10.30;;;;;;;;;;5011090;28;20034;-84
2022/06/27 00:40:28;;;;;;;11.25;10.05;;;;;;;;;;4992709;28;20128;-84
2022/06/27 00:42:54;;;;;;;12.27;10.38;;;;;;;;;;4992960;28;20449;-84
2022/06/27 00:45:20;;;;;;;11.98;10.77;;;;;;;;;;4994061;28;20057;-84
2022/06/27 00:47:46;;;;;;;11.52;10.43;;;;;;;;;;4993194;28;20068;-84
2022/06/27 00:50:12;;;;;;;14.80;11.13;;;;;;;;;;4992454;28;20046;-84
2022/06/27 00:52:39;;;;;;;12.57;11.20;;;;;;;;;;5010402;28;20044;-84
2022/06/27 00:55:05;;;;;;;11.68;10.48;;;;;;;;;;5009910;28;20546;-84
2022/06/27 00:57:32;;;;;;;13.23;11.30;;;;;;;;;;4992858;28;20137;-84
2022/06/27 00:59:58;;;;;;;11.43;10.23;;;;;;;;;;4993185;28;20486;-84
2022/06/27 01:02:24;;;;;;;11.85;10.38;;;;;;;;;;5010676;28;20070;-84
2022/06/27 01:04:50;;;;;;;11.15;10.02;;;;;;;;;;5009972;28;20052;-84
2022/06/27 01:07:16;;;;;;;10.88;9.77;;;;;;;;;;4992921;28;20487;-84
2022/06/27 01:09:44;;;;;;;11.55;10.38;;;;;;;;;;5010099;28;20034;-84
2022/06/27 01:12:10;;;;;;;12.32;9.65;;;;;;;;;;5009831;28;20479;-84
2022/06/27 01:14:36;;;;;;;10.82;9.75;;;;;;;;;;5010690;28;20104;-84
2022/06/27 01:17:03;;;;;;;11.75;10.55;;;;;;;;;;4992806;28;20093;-84
2022/06/27 01:19:29;;;;;;;12.23;10.93;;;;;;;;;;4988930;28;20438;-84
2022/06/27 01:21:57;;;;;;;11.38;10.30;;;;;;;;;;4996138;28;20046;-84
2022/06/27 01:24:23;;;;;;;13.23;11.73;;;;;;;;;;5009475;28;20041;-83
2022/06/27 01:26:50;;;;;;;12.05;10.85;;;;;;;;;;4992833;28;20041;-83
2022/06/27 01:29:16;;;;;;;12.63;11.32;;;;;;;;;;5010279;28;20068;-83
2022/06/27 01:31:43;;;;;;;12.27;10.65;;;;;;;;;;4992862;28;20067;-83
2022/06/27 01:34:09;;;;;;;14.93;11.63;;;;;;;;;;4991617;28;20061;-83
2022/06/27 01:36:41;;;;;;;15.60;12.95;;;;;;;;;;4989330;28;20452;-83
2022/06/27 01:39:09;;;;;;;16.25;12.68;;;;;;;;;;4999072;28;20042;-83
2022/06/27 01:41:35;;;;;;;15.85;11.65;;;;;;;;;;5010251;28;20045;-83
2022/06/27 01:44:02;;;;;;;15.50;12.10;;;;;;;;;;5009954;28;20046;-84
2022/06/27 01:46:39;;;;;;;16.17;13.20;;;;;;;;;;4992594;28;20406;-83
2022/06/27 01:49:05;;;;;;;14.23;12.52;;;;;;;;;;4991466;28;20499;-83
2022/06/27 01:51:31;;;;;;;16.20;13.02;;;;;;;;;;5010091;28;20495;-83
2022/06/27 01:53:57;;;;;;;16.23;14.35;;;;;;;;;;4990861;28;20291;-83
2022/06/27 01:56:23;;;;;;;17.33;14.80;;;;;;;;;;5010161;28;20045;-83
2022/06/27 01:58:52;;;;;;;15.68;13.65;;;;;;;;;;5009986;28;20069;-84
2022/06/27 02:01:18;;;;;;;18.25;14.80;;;;;;;;;;4992028;28;20046;-83
2022/06/27 02:03:44;;;;;;;16.90;13.73;;;;;;;;;;4991968;28;20099;-83
2022/06/27 02:06:11;;;;;;;19.80;15.30;;;;;;;;;;4991322;28;20414;-83
2022/06/27 02:08:41;;;;;;;19.25;15.32;;;;;;;;;;4990833;28;20506;-83
2022/06/27 02:11:08;;;;;;;19.88;15.10;;;;;;;;;;4975999;28;20046;-84
2022/06/27 02:13:34;;;;;;;19.88;15.18;;;;;;;;;;4976096;28;20050;-83
2022/06/27 02:16:08;;;;;;;16.52;13.80;;;;;;;;;;5009805;28;20061;-83
2022/06/27 02:18:34;;;;;;;16.08;13.93;;;;;;;;;;4991650;28;20052;-83
2022/06/27 02:21:01;;;;;;;14.88;12.63;;;;;;;;;;4991673;28;20128;-83
2022/06/27 02:23:27;;;;;;;16.88;14.30;;;;;;;;;;5008434;28;20081;-84
2022/06/27 02:25:54;;;;;;;16.98;13.98;;;;;;;;;;5009746;28;20046;-83
2022/06/27 02:28:20;;;;;;;16.10;14.40;;;;;;;;;;4991749;28;20100;-83
2022/06/27 02:30:46;;;;;;;17.30;13.85;;;;;;;;;;4992014;28;20080;-83
2022/06/27 02:33:12;;;;;;;16.08;14.35;;;;;;;;;;4991105;28;20096;-83
2022/06/27 02:35:40;;;;;;;16.35;14.65;;;;;;;;;;4989082;28;20054;-83
2022/06/27 02:38:08;;;;;;;16.77;13.32;;;;;;;;;;5007111;28;20045;-84
2022/06/27 02:40:34;;;;;;;15.30;13.70;;;;;;;;;;5009786;28;20111;-83
2022/06/27 02:43:00;;;;;;;14.70;13.18;;;;;;;;;;5009521;28;20125;-83
2022/06/27 02:45:30;;;;;;;14.25;12.75;;;;;;;;;;4991169;28;20084;-83
2022/06/27 02:47:59;;;;;;;13.88;12.50;;;;;;;;;;5009683;28;20072;-83
2022/06/27 02:50:26;;;;;;;15.95;14.32;;;;;;;;;;5009589;28;20521;-83
2022/06/27 02:52:56;;;;;;;15.05;13.45;;;;;;;;;;5006204;28;20044;-83
2022/06/27 02:55:27;;;;;;;14.68;12.88;;;;;;;;;;4992053;28;20086;-83
2022/06/27 02:58:01;;;;;;;15.00;13.10;;;;;;;;;;4994024;28;20129;-83
2022/06/27 03:00:28;;;;;;;14.68;13.18;;;;;;;;;;5017379;28;20049;-83
2022/06/27 03:02:54;;;;;;;14.65;13.15;;;;;;;;;;5027522;28;20581;-83
2022/06/27 03:05:20;;;;;;;16.33;14.55;;;;;;;;;;5027745;28;20053;-84
2022/06/27 03:07:48;;;;;;;15.00;13.57;;;;;;;;;;5027269;28;20107;-83
2022/06/27 03:10:14;;;;;;;15.82;14.18;;;;;;;;;;5027746;28;20112;-83
2022/06/27 03:12:41;;;;;;;18.15;15.18;;;;;;;;;;5029218;28;20107;-83
2022/06/27 03:15:08;;;;;;;16.75;15.00;;;;;;;;;;5029489;28;20379;-83
2022/06/27 03:17:34;;;;;;;16.85;14.65;;;;;;;;;;5032734;28;20046;-83
2022/06/27 03:20:00;;;;;;;16.20;14.43;;;;;;;;;;5030937;28;20543;-83
2022/06/27 03:22:26;;;;;;;16.42;14.82;;;;;;;;;;5028977;28;20541;-83
2022/06/27 03:24:52;;;;;;;21.42;16.10;;;;;;;;;;5031156;28;20045;-83
2022/06/27 03:27:18;;;;;;;16.85;14.52;;;;;;;;;;5032061;28;20049;-83
2022/06/27 03:29:44;;;;;;;20.77;14.50;;;;;;;;;;5023594;28;20046;-83
2022/06/27 03:32:10;;;;;;;16.50;14.80;;;;;;;;;;5032225;28;20045;-84
2022/06/27 03:34:36;;;;;;;17.38;15.52;;;;;;;;;;5031151;28;20045;-83
2022/06/27 03:37:02;;;;;;;15.70;14.10;;;;;;;;;;5027881;28;20041;-83
2022/06/27 03:39:28;;;;;;;17.02;14.88;;;;;;;;;;5032502;28;20045;-83
2022/06/27 03:41:54;;;;;;;16.13;14.52;;;;;;;;;;5032075;28;20045;-83
2022/06/27 03:44:21;;;;;;;15.80;14.20;;;;;;;;;;5030001;28;20045;-84
2022/06/27 03:46:47;;;;;;;17.50;15.60;;;;;;;;;;5030903;28;20061;-83
2022/06/27 03:51:58;;;;;;;18.80;15.38;;;;;;;;;;5028358;28;20096;-83
2022/06/27 03:54:24;;;;;;;18.50;16.60;;;;;;;;;;5031076;28;20045;-83
2022/06/27 03:56:50;;;;;;;17.70;15.90;;;;;;;;;;5030878;28;20037;-84
2022/06/27 03:59:16;;;;;;;18.77;16.88;;;;;;;;;;5030254;28;20087;-83
2022/06/27 04:01:42;;;;;;;19.50;16.92;;;;;;;;;;5031776;28;20478;-83
2022/06/27 04:04:09;;;;;;;18.85;16.83;;;;;;;;;;5031076;28;20377;-83
2022/06/27 04:06:35;;;;;;;17.20;15.43;;;;;;;;;;5029843;28;20057;-83
2022/06/27 04:09:01;;;;;;;18.13;16.25;;;;;;;;;;5031509;28;20045;-83
2022/06/27 04:11:27;;;;;;;16.70;14.98;;;;;;;;;;5029556;28;20560;-84
2022/06/27 04:13:53;;;;;;;15.95;14.25;;;;;;;;;;5031410;28;20045;-84
2022/06/27 04:16:19;;;;;;;18.83;16.85;;;;;;;;;;5030372;28;20045;-84
2022/06/27 04:18:45;;;;;;;16.50;14.55;;;;;;;;;;5029737;28;20077;-84
2022/06/27 04:21:11;;;;;;;18.75;16.05;;;;;;;;;;5029174;28;20487;-84
2022/06/27 04:23:37;;;;;;;19.55;16.80;;;;;;;;;;5031415;28;20053;-84
2022/06/27 04:26:05;;;;;;;20.33;16.35;;;;;;;;;;5029921;28;20075;-83
2022/06/27 04:28:31;;;;;;;19.35;17.20;;;;;;;;;;5030010;28;20172;-84
2022/06/27 04:30:57;;;;;;;18.83;16.92;;;;;;;;;;5029838;28;20048;-84
2022/06/27 04:33:23;;;;;;;20.08;17.58;;;;;;;;;;5029421;28;20045;-84
2022/06/27 04:35:50;;;;;;;19.20;17.15;;;;;;;;;;5027864;28;20049;-84
2022/06/27 04:38:18;;;;;;;20.85;18.38;;;;;;;;;;5029573;28;20057;-84
2022/06/27 04:40:47;;;;;;;18.80;16.83;;;;;;;;;;5031333;28;20050;-83
2022/06/27 04:43:14;;;;;;;20.10;17.50;;;;;;;;;;5030682;28;20623;-84
2022/06/27 04:45:42;;;;;;;21.52;18.05;;;;;;;;;;5031074;28;20072;-84
2022/06/27 04:48:10;;;;;;;20.30;18.00;;;;;;;;;;5028969;28;20096;-83
2022/06/27 04:50:37;;;;;;;20.58;18.50;;;;;;;;;;5026325;28;20132;-84
2022/06/27 04:53:04;;;;;;;21.30;18.98;;;;;;;;;;5029380;28;20126;-83
2022/06/27 04:55:30;;;;;;;21.00;18.63;;;;;;;;;;5029691;28;20049;-83
2022/06/27 04:57:57;;;;;;;21.35;18.80;;;;;;;;;;5025256;28;20057;-83
2022/06/27 05:00:23;;;;;;;20.73;18.52;;;;;;;;;;5010903;28;20041;-83
2022/06/27 05:02:49;;;;;;;20.95;18.65;;;;;;;;;;4993020;28;20049;-83
2022/06/27 05:05:15;;;;;;;21.60;18.83;;;;;;;;;;5009229;28;20044;-83
2022/06/27 05:07:43;;;;;;;24.13;18.10;;;;;;;;;;4981503;28;20550;-83
2022/06/27 05:10:10;;;;;;;21.77;18.48;;;;;;;;;;4957372;28;20050;-84
2022/06/27 05:12:36;;;;;;;22.63;18.92;;;;;;;;;;4991336;28;20050;-84
2022/06/27 05:15:02;;;;;;;20.85;17.75;;;;;;;;;;4990678;28;20117;-84
2022/06/27 05:17:28;;;;;;;23.55;18.58;;;;;;;;;;4990990;28;20053;-84
2022/06/27 05:19:54;;;;;;;20.42;17.95;;;;;;;;;;4975243;28;20053;-84
2022/06/27 05:22:20;;;;;;;21.27;17.63;;;;;;;;;;5008956;28;20048;-84
2022/06/27 05:24:48;;;;;;;18.08;16.15;;;;;;;;;;4991314;28;20145;-84
2022/06/27 05:27:15;;;;;;;19.80;17.50;;;;;;;;;;4976274;28;20058;-84
2022/06/27 05:29:41;;;;;;;23.63;17.55;;;;;;;;;;4993266;28;20046;-84
2022/06/27 05:32:07;;;;;;;20.67;17.42;;;;;;;;;;5009824;28;20115;-84
2022/06/27 05:34:33;;;;;;;19.73;17.15;;;;;;;;;;4983026;28;20050;-84
2022/06/27 05:36:59;;;;;;;21.08;16.92;;;;;;;;;;4991503;28;20517;-84
2022/06/27 05:39:27;;;;;;;20.33;17.25;;;;;;;;;;5010265;28;20493;-84
2022/06/27 05:41:53;;;;;;;18.98;16.95;;;;;;;;;;4990127;28;20057;-84
2022/06/27 05:44:20;;;;;;;18.90;16.35;;;;;;;;;;5010261;28;20500;-84
2022/06/27 05:46:46;;;;;;;19.23;16.88;;;;;;;;;;5009948;28;20060;-84
2022/06/27 05:49:12;;;;;;;19.40;16.80;;;;;;;;;;4992244;28;20053;-84
2022/06/27 05:51:38;;;;;;;18.90;16.40;;;;;;;;;;4976632;28;20181;-84
2022/06/27 05:54:09;;;;;;;17.20;15.32;;;;;;;;;;4990166;28;20042;-84
2022/06/27 05:56:35;;;;;;;18.40;16.33;;;;;;;;;;4980463;28;20057;-84
2022/06/27 05:59:02;;;;;;;19.13;16.42;;;;;;;;;;5016014;28;20053;-86
2022/06/27 06:01:28;;;;;;;18.30;15.38;;;;;;;;;;5025238;28;20347;-85
2022/06/27 06:03:56;;;;;;;17.60;15.68;;;;;;;;;;5019054;28;20049;-87
2022/06/27 06:06:24;;;;;;;17.40;14.77;;;;;;;;;;5028744;28;20056;-84
2022/06/27 06:08:51;;;;;;;16.75;15.05;;;;;;;;;;5028481;28;20056;-84
2022/06/27 06:11:17;;;;;;;17.45;15.30;;;;;;;;;;5028098;28;20041;-84
2022/06/27 06:13:43;;;;;;;18.58;16.40;;;;;;;;;;5028812;28;20077;-84
2022/06/27 06:16:10;;;;;;;20.05;17.52;;;;;;;;;;5029302;28;20050;-84
2022/06/27 06:18:37;;;;;;;19.80;17.48;;;;;;;;;;5028510;28;20088;-84
2022/06/27 06:21:03;;;;;;;21.25;18.30;;;;;;;;;;5027953;28;20413;-84
2022/06/27 06:23:32;;;;;;;21.98;17.67;;;;;;;;;;5026594;28;20477;-84
2022/06/27 06:25:58;;;;;;;21.05;18.20;;;;;;;;;;5013989;28;20487;-84
2022/06/27 06:28:30;;;;;;;21.52;17.60;;;;;;;;;;5008834;28;20418;-84
2022/06/27 06:30:56;;;;;;;20.70;17.10;;;;;;;;;;5007965;28;20050;-84
2022/06/27 06:33:23;;;;;;;18.70;16.75;;;;;;;;;;5010011;28;20121;-84
2022/06/27 06:35:49;;;;;;;18.48;16.17;;;;;;;;;;5027483;28;20077;-84
2022/06/27 06:38:15;;;;;;;19.30;16.48;;;;;;;;;;5026479;28;20096;-87
2022/06/27 06:40:41;;;;;;;18.98;16.98;;;;;;;;;;5029606;28;20053;-84
2022/06/27 06:43:07;;;;;;;19.33;17.33;;;;;;;;;;5029137;28;20080;-84
2022/06/27 06:45:33;;;;;;;20.23;17.60;;;;;;;;;;5024995;28;20486;-84
2022/06/27 06:47:59;;;;;;;20.45;18.02;;;;;;;;;;5027709;28;20482;-84
2022/06/27 06:50:25;;;;;;;19.23;17.08;;;;;;;;;;5030516;28;20565;-84
2022/06/27 06:52:52;;;;;;;21.85;18.20;;;;;;;;;;5032845;28;20128;-84
2022/06/27 06:55:22;;;;;;;20.08;17.67;;;;;;;;;;5032002;28;20048;-84
2022/06/27 06:57:51;;;;;;;19.52;17.42;;;;;;;;;;5031802;28;20061;-84
2022/06/27 07:00:19;;;;;;;19.88;17.85;;;;;;;;;;5030364;28;20056;-84
2022/06/27 07:02:46;;;;;;;19.42;17.48;;;;;;;;;;5031960;28;20096;-85
2022/06/27 07:05:13;;;;;;;18.83;16.70;;;;;;;;;;5032666;28;20045;-85
2022/06/27 07:07:42;;;;;;;19.05;17.15;;;;;;;;;;5032586;28;20483;-85
2022/06/27 07:10:09;;;;;;;19.20;17.20;;;;;;;;;;5028944;28;20172;-85
2022/06/27 07:12:36;;;;;;;19.13;17.00;;;;;;;;;;5031463;28;20405;-85
2022/06/27 07:15:05;;;;;;;18.52;16.52;;;;;;;;;;5028358;28;20069;-85
2022/06/27 07:17:39;;;;;;;19.55;17.52;;;;;;;;;;5032404;28;20053;-84
2022/06/27 07:20:05;;;;;;;19.17;17.20;;;;;;;;;;5031129;28;20057;-84
2022/06/27 07:22:32;;;;;;;20.42;17.90;;;;;;;;;;5030143;28;20055;-85
2022/06/27 07:24:58;;;;;;;19.80;17.75;;;;;;;;;;5030110;28;20057;-85
2022/06/27 07:27:24;;;;;;;21.20;18.48;;;;;;;;;;5030790;28;20045;-85
2022/06/27 07:29:52;;;;;;;22.67;17.83;;;;;;;;;;5029175;28;20401;-85
2022/06/27 07:32:18;;;;;;;21.30;18.90;;;;;;;;;;5032137;28;20053;-85
2022/06/27 07:34:44;;;;;;;20.25;18.17;;;;;;;;;;5032422;28;20410;-84
2022/06/27 07:37:10;;;;;;;19.88;17.80;;;;;;;;;;5030493;28;20502;-86
2022/06/27 07:39:37;;;;;;;19.15;16.98;;;;;;;;;;5011719;28;20046;-85
2022/06/27 07:42:03;;;;;;;22.23;18.05;;;;;;;;;;5011830;28;20045;-83
2022/06/27 07:44:30;;;;;;;19.50;17.50;;;;;;;;;;5030946;28;20124;-83
2022/06/27 07:46:57;;;;;;;19.45;17.25;;;;;;;;;;5030435;28;20059;-83
2022/06/27 07:49:23;;;;;;;20.08;17.70;;;;;;;;;;5032525;28;20099;-84
2022/06/27 07:51:49;;;;;;;19.35;17.33;;;;;;;;;;5030944;28;20448;-84
2022/06/27 07:54:16;;;;;;;18.65;16.67;;;;;;;;;;5030446;28;20125;-84
2022/06/27 07:56:43;;;;;;;19.83;17.00;;;;;;;;;;5030872;28;20100;-85
2022/06/27 07:59:10;;;;;;;19.27;17.15;;;;;;;;;;5015255;28;20054;-85
2022/06/27 08:01:37;;;;;;;19.17;17.20;;;;;;;;;;4975331;28;20104;-84
2022/06/27 08:04:04;;;;;;;20.30;16.65;;;;;;;;;;4993962;28;20050;-85
2022/06/27 08:06:30;;;;;;;19.38;17.20;;;;;;;;;;4992819;28;20050;-84
2022/06/27 08:08:57;;;;;;;20.48;18.27;;;;;;;;;;4974647;28;20503;-84
2022/06/27 08:11:28;;;;;;;19.67;17.27;;;;;;;;;;4996581;28;20108;-86
2022/06/27 08:13:55;;;;;;;20.00;17.85;;;;;;;;;;4987200;28;20042;-86
2022/06/27 08:16:22;;;;;;;22.52;18.13;;;;;;;;;;4994211;28;20049;-85
2022/06/27 08:18:50;;;;;;;21.27;17.73;;;;;;;;;;4993430;28;20046;-85
2022/06/27 08:21:18;;;;;;;19.02;17.00;;;;;;;;;;4993554;28;20140;-85
2022/06/27 08:23:46;;;;;;;20.38;18.17;;;;;;;;;;4994087;28;20518;-85
2022/06/27 08:26:12;;;;;;;19.50;17.38;;;;;;;;;;4984684;28;20046;-85
2022/06/27 08:28:40;;;;;;;19.52;17.42;;;;;;;;;;4988134;28;20125;-85
2022/06/27 08:31:07;;;;;;;20.58;18.30;;;;;;;;;;4991896;28;20133;-85
2022/06/27 08:33:33;;;;;;;19.50;17.55;;;;;;;;;;5010793;28;20038;-85
2022/06/27 08:36:00;;;;;;;21.38;18.02;;;;;;;;;;4987988;28;20128;-85
2022/06/27 08:38:26;;;;;;;19.90;17.83;;;;;;;;;;5010163;28;20054;-85
2022/06/27 08:40:53;;;;;;;21.73;18.48;;;;;;;;;;5007339;28;20041;-85
2022/06/27 08:43:20;;;;;;;19.05;17.02;;;;;;;;;;4998206;28;20057;-85
2022/06/27 08:45:51;;;;;;;19.70;17.58;;;;;;;;;;5013264;28;20111;-85
2022/06/27 08:48:18;;;;;;;19.42;17.33;;;;;;;;;;4999493;28;20057;-85
2022/06/27 08:50:45;;;;;;;20.45;18.15;;;;;;;;;;4984094;28;20038;-85
2022/06/27 08:53:15;;;;;;;19.67;17.58;;;;;;;;;;5013856;28;20545;-85
2022/06/27 08:55:46;;;;;;;20.33;18.05;;;;;;;;;;4991609;28;20491;-85
2022/06/27 08:58:13;;;;;;;20.02;17.90;;;;;;;;;;5008227;28;20073;-85
2022/06/27 09:00:45;;;;;;;19.73;17.00;;;;;;;;;;4992324;28;20050;-86
2022/06/27 09:03:12;;;;;;;18.20;16.23;;;;;;;;;;4992381;28;20121;-85
2022/06/27 09:05:38;;;;;;;18.73;16.85;;;;;;;;;;4991367;28;20050;-85
2022/06/27 09:08:05;;;;;;;18.17;16.27;;;;;;;;;;4991386;28;20298;-85
2022/06/27 09:10:32;;;;;;;17.55;15.68;;;;;;;;;;4999032;28;20034;-86
2022/06/27 09:13:00;;;;;;;17.10;15.30;;;;;;;;;;4992214;28;20053;-86
2022/06/27 09:15:28;;;;;;;16.67;14.98;;;;;;;;;;4993268;28;20049;-86
2022/06/27 09:18:06;;;;;;;16.40;14.68;;;;;;;;;;4993865;28;20054;-86
2022/06/27 09:20:46;;;;;;;15.80;14.20;;;;;;;;;;4991768;28;20056;-85
2022/06/27 09:23:29;;;;;;;17.13;15.32;;;;;;;;;;5009452;28;20437;-86
2022/06/27 09:26:03;;;;;;;16.75;15.02;;;;;;;;;;5008983;28;20540;-86
2022/06/27 09:28:43;;;;;;;16.80;14.40;;;;;;;;;;5010809;28;20049;-86
2022/06/27 09:31:15;;;;;;;15.95;14.32;;;;;;;;;;4991697;28;20137;-86
2022/06/27 09:33:41;;;;;;;16.15;14.45;;;;;;;;;;4993442;28;20490;-86
2022/06/27 09:36:13;;;;;;;16.48;14.88;;;;;;;;;;5009864;28;20077;-87
2022/06/27 09:38:42;;;;;;;15.75;14.07;;;;;;;;;;4989008;28;20085;-85
2022/06/27 09:41:14;;;;;;;15.40;13.73;;;;;;;;;;4988689;28;20130;-87
2022/06/27 09:43:42;;;;;;;13.77;12.43;;;;;;;;;;4983273;28;20050;-86
2022/06/27 09:46:08;;;;;;;17.23;13.57;;;;;;;;;;4990490;28;20041;-86
2022/06/27 09:48:37;;;;;;;13.65;12.25;;;;;;;;;;4985499;28;20395;-84
2022/06/27 09:51:04;;;;;;;14.23;12.80;;;;;;;;;;4972670;28;20086;-84
2022/06/27 09:53:30;;;;;;;14.10;12.70;;;;;;;;;;4986973;28;20056;-84
2022/06/27 09:55:58;;;;;;;14.48;13.07;;;;;;;;;;5009955;28;20132;-84
2022/06/27 09:58:25;;;;;;;14.02;12.73;;;;;;;;;;5009962;28;20058;-87
2022/06/27 10:00:51;;;;;;;13.27;11.98;;;;;;;;;;5010230;28;20403;-84
2022/06/27 10:03:17;;;;;;;12.35;11.15;;;;;;;;;;4971516;28;20085;-85
2022/06/27 10:05:44;;;;;;;18.80;13.02;;;;;;;;;;4989366;28;20506;-84
2022/06/27 10:08:10;;;;;;;14.48;12.98;;;;;;;;;;5008298;28;20128;-86
2022/06/27 10:10:56;;;;;;;13.13;11.82;;;;;;;;;;4976541;28;20426;-86
2022/06/27 10:13:22;;;;;;;14.57;12.45;;;;;;;;;;4974874;28;20132;-87
2022/06/27 10:15:50;;;;;;;13.05;11.73;;;;;;;;;;4990736;28;20038;-85
2022/06/27 10:18:16;;;;;;;13.68;12.27;;;;;;;;;;4988755;28;20141;-85
2022/06/27 10:20:47;;;;;;;13.73;12.32;;;;;;;;;;4981877;28;20057;-85
2022/06/27 10:23:18;;;;;;;13.30;11.90;;;;;;;;;;4989915;28;20050;-85
2022/06/27 10:25:48;;;;;;;12.95;11.65;;;;;;;;;;5013243;28;20061;-85
2022/06/27 10:28:15;;;;;;;13.50;11.18;;;;;;;;;;4996357;28;20053;-85
2022/06/27 10:30:55;;;;;;;11.35;10.13;;;;;;;;;;4980394;28;20077;-85
2022/06/27 10:33:24;;;;;;;11.05;9.95;;;;;;;;;;5013880;28;20132;-85
2022/06/27 10:36:02;;;;;;;13.68;11.93;;;;;;;;;;4995799;28;20057;-87
2022/06/27 10:38:41;;;;;;;11.95;10.75;;;;;;;;;;4994999;28;20046;-85
2022/06/27 10:41:07;;;;;;;11.55;10.40;;;;;;;;;;5010950;28;20358;-85
2022/06/27 10:43:37;;;;;;;12.25;10.65;;;;;;;;;;5011650;28;20042;-85
2022/06/27 10:46:13;;;;;;;12.35;11.05;;;;;;;;;;4993407;28;20124;-85
2022/06/27 10:48:42;;;;;;;12.27;10.98;;;;;;;;;;4991055;28;20051;-85
2022/06/27 10:51:27;;;;;;;11.63;9.85;;;;;;;;;;4993206;28;20047;-85
2022/06/27 10:53:59;;;;;;;12.40;11.18;;;;;;;;;;4990408;28;20057;-85
2022/06/27 10:56:31;;;;;;;12.88;10.93;;;;;;;;;;5012451;28;20084;-85
2022/06/27 10:58:58;;;;;;;12.63;11.35;;;;;;;;;;5017850;28;20061;-85
2022/06/27 11:01:24;;;;;;;12.15;10.95;;;;;;;;;;5031955;28;20052;-85
2022/06/27 11:03:51;;;;;;;12.82;11.00;;;;;;;;;;5014698;28;20482;-85
2022/06/27 11:06:17;;;;;;;11.85;10.23;;;;;;;;;;5029777;28;20060;-85
2022/06/27 11:08:45;;;;;;;12.27;10.55;;;;;;;;;;5031915;28;20041;-86
2022/06/27 11:11:19;;;;;;;12.30;11.07;;;;;;;;;;5026988;28;20169;-85
2022/06/27 11:13:45;;;;;;;12.52;11.18;;;;;;;;;;5026519;28;20046;-86
2022/06/27 11:16:21;;;;;;;11.40;10.25;;;;;;;;;;5028056;28;20089;-86
2022/06/27 11:18:52;;;;;;;11.50;10.40;;;;;;;;;;5026126;28;20044;-86
2022/06/27 11:21:19;;;;;;;11.52;10.32;;;;;;;;;;5030895;28;20045;-87
2022/06/27 11:23:52;;;;;;;11.43;10.10;;;;;;;;;;5031606;28;20045;-87
2022/06/27 11:26:19;;;;;;;10.88;9.77;;;;;;;;;;5031452;28;20056;-87
2022/06/27 11:34:15;;;;;;;11.88;10.45;;;;;;;;;;5031970;28;20128;-87
2022/06/27 11:36:41;;;;;;;12.55;10.13;;;;;;;;;;5032100;28;20045;-86
2022/06/27 11:39:07;;;;;;;10.75;9.75;;;;;;;;;;5030500;28;20041;-87
2022/06/27 11:41:38;;;;;;;11.02;9.82;;;;;;;;;;5030349;28;20124;-87
2022/06/27 11:44:07;;;;;;;10.63;9.52;;;;;;;;;;5030958;28;20143;-87
2022/06/27 11:46:46;;;;;;;10.95;9.05;;;;;;;;;;5014666;28;20490;-88
2022/06/27 11:49:13;;;;;;;10.30;9.10;;;;;;;;;;5031229;28;20049;-86
2022/06/27 11:51:41;;;;;;;11.20;9.25;;;;;;;;;;5030932;28;20453;-86
2022/06/27 11:54:09;;;;;;;10.07;9.15;;;;;;;;;;5013520;28;20124;-86
2022/06/27 11:56:37;;;;;;;12.43;9.88;;;;;;;;;;5030189;28;20053;-85
2022/06/27 11:59:04;;;;;;;13.07;10.02;;;;;;;;;;5030251;28;20049;-85
2022/06/27 12:01:30;;;;;;;12.38;11.05;;;;;;;;;;5030605;28;20057;-86
2022/06/27 12:04:08;;;;;;;12.00;10.65;;;;;;;;;;5030942;28;20100;-87
2022/06/27 12:06:45;;;;;;;11.73;10.52;;;;;;;;;;5024375;28;20112;-87
2022/06/27 12:09:11;;;;;;;11.65;10.38;;;;;;;;;;5029771;28;20554;-87
2022/06/27 12:11:37;;;;;;;12.93;10.35;;;;;;;;;;5031362;28;20166;-87
2022/06/27 12:14:03;;;;;;;12.02;10.57;;;;;;;;;;5030568;28;20045;-85
2022/06/27 12:16:43;;;;;;;10.25;9.25;;;;;;;;;;5032020;28;20073;-85
2022/06/27 12:19:10;;;;;;;11.18;9.50;;;;;;;;;;5013412;28;20041;-85
2022/06/27 12:21:36;;;;;;;11.82;10.05;;;;;;;;;;5013883;28;20136;-85
2022/06/27 12:24:02;;;;;;;10.45;9.35;;;;;;;;;;5028959;28;20037;-85
2022/06/27 12:26:28;;;;;;;11.85;10.63;;;;;;;;;;5030782;28;20060;-87
2022/06/27 12:28:54;;;;;;;11.23;10.02;;;;;;;;;;5030003;28;20053;-86
2022/06/27 12:31:20;;;;;;;12.25;10.52;;;;;;;;;;5030867;28;20128;-85
2022/06/27 12:33:46;;;;;;;11.65;10.45;;;;;;;;;;5029264;28;20046;-85
2022/06/27 12:36:14;;;;;;;11.02;9.48;;;;;;;;;;5029918;28;20046;-85
2022/06/27 12:38:41;;;;;;;11.38;10.20;;;;;;;;;;5023962;28;20121;-84
2022/06/27 12:41:15;;;;;;;12.57;10.60;;;;;;;;;;5019723;28;20045;-84
2022/06/27 12:43:42;;;;;;;12.35;11.00;;;;;;;;;;5028060;28;20058;-85
2022/06/27 12:46:08;;;;;;;13.88;10.57;;;;;;;;;;5028267;28;20529;-85
2022/06/27 12:48:37;;;;;;;11.40;10.23;;;;;;;;;;5029036;28;20402;-84
2022/06/27 12:51:03;;;;;;;12.07;10.77;;;;;;;;;;5027660;28;20049;-85
2022/06/27 12:53:29;;;;;;;13.27;10.68;;;;;;;;;;5026926;28;20042;-84
2022/06/27 12:55:55;;;;;;;13.07;11.10;;;;;;;;;;5023336;28;20046;-84
2022/06/27 12:58:21;;;;;;;11.70;10.52;;;;;;;;;;5018398;28;20061;-84
2022/06/27 13:00:47;;;;;;;13.32;11.15;;;;;;;;;;4992743;28;20050;-85
2022/06/27 13:03:14;;;;;;;13.85;11.57;;;;;;;;;;4988208;28;20061;-84
2022/06/27 13:05:40;;;;;;;11.95;10.85;;;;;;;;;;4985610;28;20157;-85
2022/06/27 13:08:07;;;;;;;12.32;11.02;;;;;;;;;;4978865;28;20487;-85
2022/06/27 13:10:34;;;;;;;13.68;11.25;;;;;;;;;;4983408;28;20061;-85
2022/06/27 13:13:00;;;;;;;13.02;11.70;;;;;;;;;;5004046;28;20046;-85
2022/06/27 13:15:26;;;;;;;12.32;11.13;;;;;;;;;;4985043;28;20071;-85
2022/06/27 13:17:52;;;;;;;13.15;11.57;;;;;;;;;;4997251;28;20037;-85
2022/06/27 13:20:18;;;;;;;12.18;10.93;;;;;;;;;;4984093;28;20207;-85
2022/06/27 13:22:44;;;;;;;11.93;10.73;;;;;;;;;;4989775;28;20481;-85
2022/06/27 13:25:11;;;;;;;12.43;11.15;;;;;;;;;;4978991;28;20630;-87
2022/06/27 13:27:37;;;;;;;11.77;9.65;;;;;;;;;;5010655;28;20533;-85
2022/06/27 13:30:05;;;;;;;11.40;9.50;;;;;;;;;;4989337;28;20125;-85
2022/06/27 13:32:31;;;;;;;10.32;9.13;;;;;;;;;;5008530;28;20164;-84
2022/06/27 13:34:58;;;;;;;10.35;9.30;;;;;;;;;;5009367;28;20037;-84
2022/06/27 13:37:24;;;;;;;10.15;8.95;;;;;;;;;;4992030;28;20053;-85
2022/06/27 13:39:50;;;;;;;11.75;10.02;;;;;;;;;;4990335;28;20049;-85
2022/06/27 13:42:16;;;;;;;10.70;9.60;;;;;;;;;;4985169;28;20399;-84
2022/06/27 13:44:42;;;;;;;10.63;9.52;;;;;;;;;;5007776;28;20041;-85
2022/06/27 13:47:08;;;;;;;12.38;9.95;;;;;;;;;;5009888;28;20104;-84
2022/06/27 13:49:35;;;;;;;11.23;10.02;;;;;;;;;;4991773;28;20099;-85
2022/06/27 13:52:01;;;;;;;11.02;9.93;;;;;;;;;;4992185;28;20454;-85
2022/06/27 13:54:27;;;;;;;11.77;10.52;;;;;;;;;;5009315;28;20092;-85
2022/06/27 13:56:54;;;;;;;11.25;10.10;;;;;;;;;;4992192;28;20077;-85
2022/06/27 13:59:20;;;;;;;11.30;9.57;;;;;;;;;;5019724;28;20509;-85
2022/06/27 14:01:46;;;;;;;11.60;8.85;;;;;;;;;;5026995;28;20050;-85
2022/06/27 14:04:13;;;;;;;10.45;8.90;;;;;;;;;;5029614;28;20368;-85
2022/06/27 14:09:31;;;;;;;12.35;9.82;;;;;;;;;;5011885;28;20148;-85
2022/06/27 14:11:57;;;;;;;9.35;7.38;;;;;;;;;;5024041;28;20049;-85
2022/06/27 14:14:23;;;;;;;9.05;8.07;;;;;;;;;;5018529;28;20075;-85
2022/06/27 14:16:50;;;;;;;8.38;7.13;;;;;;;;;;5028821;28;20042;-85
2022/06/27 14:19:17;;;;;;;7.85;7.15;;;;;;;;;;5029606;28;20049;-85
2022/06/27 14:21:43;;;;;;;8.52;6.88;;;;;;;;;;5023814;28;20578;-85
2022/06/27 14:24:09;;;;;;;7.60;6.35;;;;;;;;;;5028322;28;20046;-85
2022/06/27 14:26:35;;;;;;;7.80;6.20;;;;;;;;;;5029563;28;20054;-84
2022/06/27 14:29:02;;;;;;;7.55;6.22;;;;;;;;;;5025808;28;20076;-84
2022/06/27 14:31:28;;;;;;;7.15;6.10;;;;;;;;;;5027699;28;20099;-85